Time;durP1;ratioP1;P1;durP2;ratioP2;P2;SDS_P1;SDS_P2;PMS_P1;PMS_P2;Temp;Humidity;BMP_temperature;BMP_pressure;BME280_temperature;BME280_humidity;BME280_pressure;Samples;Min_cycle;Max_cycle;Signal;HPM_P1;HPM_P2
2022/04/19 00:01:25;;;;;;;4.53;2.70;;;;;;;;;;6128936;28;20231;-70
2022/04/19 00:04:46;;;;;;;2.93;2.63;;;;;;;;;;6129681;28;20587;-71
2022/04/19 00:08:07;;;;;;;2.33;1.80;;;;;;;;;;6144735;28;20226;-71
2022/04/19 00:11:29;;;;;;;2.40;2.20;;;;;;;;;;6147217;28;20234;-71
2022/04/19 00:14:49;;;;;;;2.53;2.40;;;;;;;;;;6129355;28;20231;-71
2022/04/19 00:18:11;;;;;;;3.13;2.30;;;;;;;;;;6129006;28;20757;-70
2022/04/19 00:21:32;;;;;;;2.43;2.20;;;;;;;;;;6131035;28;20223;-70
2022/04/19 00:24:52;;;;;;;2.30;2.00;;;;;;;;;;6132327;28;20240;-71
2022/04/19 00:28:15;;;;;;;2.97;2.70;;;;;;;;;;6127395;28;20227;-71
2022/04/19 00:31:35;;;;;;;3.50;2.10;;;;;;;;;;6130171;28;20231;-71
2022/04/19 00:34:56;;;;;;;2.20;2.00;;;;;;;;;;6126742;28;20242;-71
2022/04/19 00:38:17;;;;;;;2.67;2.47;;;;;;;;;;6131004;28;21889;-71
2022/04/19 00:41:37;;;;;;;2.50;2.17;;;;;;;;;;6129524;28;20250;-71
2022/04/19 00:45:02;;;;;;;2.40;2.23;;;;;;;;;;6140254;28;20238;-71
2022/04/19 00:48:23;;;;;;;2.63;2.30;;;;;;;;;;6129445;28;20550;-71
2022/04/19 00:51:46;;;;;;;2.37;2.17;;;;;;;;;;6143857;28;20271;-71
2022/04/19 00:55:08;;;;;;;3.20;2.90;;;;;;;;;;6137371;28;20231;-71
2022/04/19 00:58:32;;;;;;;3.63;2.60;;;;;;;;;;6130988;28;20577;-72
2022/04/19 01:01:54;;;;;;;3.30;3.00;;;;;;;;;;6132118;28;21677;-71
2022/04/19 01:05:16;;;;;;;2.43;2.23;;;;;;;;;;6144980;28;20314;-71
2022/04/19 01:08:39;;;;;;;2.83;2.10;;;;;;;;;;6128551;28;20259;-71
2022/04/19 01:15:41;;;;;;;2.80;2.50;;;;;;;;;;6148435;28;20222;-72
2022/04/19 01:19:08;;;;;;;2.93;2.70;;;;;;;;;;6140673;28;20511;-71
2022/04/19 01:22:34;;;;;;;2.73;2.43;;;;;;;;;;6135424;28;20239;-71
2022/04/19 01:25:57;;;;;;;4.13;2.90;;;;;;;;;;6139745;28;20318;-71
2022/04/19 01:29:18;;;;;;;4.07;2.37;;;;;;;;;;6139660;28;20255;-72
2022/04/19 01:32:41;;;;;;;2.70;2.50;;;;;;;;;;6138401;28;20255;-70
2022/04/19 01:36:03;;;;;;;3.03;2.80;;;;;;;;;;6143648;28;20918;-71
2022/04/19 01:43:01;;;;;;;4.23;2.50;;;;;;;;;;6136089;28;20229;-71
2022/04/19 01:46:29;;;;;;;3.73;2.40;;;;;;;;;;6145448;28;20237;-71
2022/04/19 01:49:50;;;;;;;3.77;2.80;;;;;;;;;;6138788;28;20238;-72
2022/04/19 01:53:14;;;;;;;3.50;2.63;;;;;;;;;;6144809;28;20238;-72
2022/04/19 01:56:37;;;;;;;2.93;2.70;;;;;;;;;;6131205;28;21494;-71
2022/04/19 02:00:11;;;;;;;3.40;3.10;;;;;;;;;;6135123;28;20257;-71
2022/04/19 02:03:41;;;;;;;3.10;2.80;;;;;;;;;;6155103;28;20226;-70
2022/04/19 02:07:04;;;;;;;3.70;2.93;;;;;;;;;;6145515;28;20227;-71
2022/04/19 02:10:25;;;;;;;3.60;2.80;;;;;;;;;;6150337;28;20681;-71
2022/04/19 02:13:48;;;;;;;4.07;3.67;;;;;;;;;;6131222;28;20234;-71
2022/04/19 02:17:18;;;;;;;3.03;2.80;;;;;;;;;;6144945;28;20439;-71
2022/04/19 02:20:39;;;;;;;4.50;3.37;;;;;;;;;;6156604;28;20530;-71
2022/04/19 02:24:00;;;;;;;3.43;3.13;;;;;;;;;;6158486;28;20247;-70
2022/04/19 02:27:20;;;;;;;3.77;3.47;;;;;;;;;;6156040;28;20256;-70
2022/04/19 02:30:43;;;;;;;3.27;2.93;;;;;;;;;;6157028;28;20234;-72
2022/04/19 02:34:09;;;;;;;4.17;3.83;;;;;;;;;;6153891;28;20241;-70
2022/04/19 02:37:32;;;;;;;5.10;3.60;;;;;;;;;;6157503;28;20325;-72
2022/04/19 02:40:53;;;;;;;4.23;3.30;;;;;;;;;;6155226;28;20234;-72
2022/04/19 02:44:14;;;;;;;9.67;3.93;;;;;;;;;;6155084;28;20230;-71
2022/04/19 02:47:42;;;;;;;3.27;3.03;;;;;;;;;;6156254;28;20230;-71
2022/04/19 02:51:03;;;;;;;4.60;4.20;;;;;;;;;;6156012;28;20671;-70
2022/04/19 02:54:24;;;;;;;4.30;3.83;;;;;;;;;;6158937;28;20317;-70
2022/04/19 02:57:44;;;;;;;3.50;3.23;;;;;;;;;;6142430;28;20238;-70
2022/04/19 03:01:06;;;;;;;4.07;3.77;;;;;;;;;;6141657;28;20271;-71
2022/04/19 03:04:28;;;;;;;5.20;3.77;;;;;;;;;;6157048;28;20536;-70
2022/04/19 03:07:48;;;;;;;4.63;4.17;;;;;;;;;;6159497;28;20242;-70
2022/04/19 03:11:10;;;;;;;4.60;4.17;;;;;;;;;;6142275;28;20278;-69
2022/04/19 03:14:32;;;;;;;4.30;3.33;;;;;;;;;;6141756;28;20230;-71
2022/04/19 03:17:52;;;;;;;4.43;4.03;;;;;;;;;;6152791;28;20305;-70
2022/04/19 03:21:17;;;;;;;4.20;3.90;;;;;;;;;;6141999;28;20235;-71
2022/04/19 03:28:18;;;;;;;5.73;4.93;;;;;;;;;;6143182;28;20226;-71
2022/04/19 03:31:39;;;;;;;4.40;4.00;;;;;;;;;;6155178;28;20242;-70
2022/04/19 03:35:00;;;;;;;4.47;4.00;;;;;;;;;;6142324;28;20664;-70
2022/04/19 03:38:22;;;;;;;5.10;4.60;;;;;;;;;;6157334;28;20238;-71
2022/04/19 03:41:43;;;;;;;3.80;3.50;;;;;;;;;;6142520;28;20675;-71
2022/04/19 03:45:04;;;;;;;3.80;3.50;;;;;;;;;;6141025;28;20235;-71
2022/04/19 03:48:25;;;;;;;5.37;4.50;;;;;;;;;;6139601;28;20234;-71
2022/04/19 03:51:45;;;;;;;4.37;4.00;;;;;;;;;;6137985;28;20231;-71
2022/04/19 03:55:08;;;;;;;4.53;3.93;;;;;;;;;;6156763;28;20230;-72
2022/04/19 03:58:32;;;;;;;4.23;3.83;;;;;;;;;;6152833;28;20523;-71
2022/04/19 04:01:54;;;;;;;4.87;4.03;;;;;;;;;;6154278;28;20273;-71
2022/04/19 04:05:14;;;;;;;6.10;4.10;;;;;;;;;;6147433;28;20226;-71
2022/04/19 04:08:35;;;;;;;4.77;4.17;;;;;;;;;;6138193;28;21762;-71
2022/04/19 04:11:57;;;;;;;4.80;4.40;;;;;;;;;;6117052;28;20235;-71
2022/04/19 04:15:17;;;;;;;4.47;3.80;;;;;;;;;;6141633;28;20617;-71
2022/04/19 04:18:39;;;;;;;6.70;4.77;;;;;;;;;;6153500;28;20238;-71
2022/04/19 04:22:00;;;;;;;5.20;4.70;;;;;;;;;;6140532;28;20246;-71
2022/04/19 04:25:21;;;;;;;4.00;3.60;;;;;;;;;;6151747;28;20227;-71
2022/04/19 04:28:43;;;;;;;4.53;4.13;;;;;;;;;;6137402;28;21732;-71
2022/04/19 04:32:03;;;;;;;5.00;4.50;;;;;;;;;;6137724;28;20234;-71
2022/04/19 04:35:24;;;;;;;4.17;3.87;;;;;;;;;;6126841;28;20933;-71
2022/04/19 04:38:45;;;;;;;6.80;4.73;;;;;;;;;;6133417;28;20234;-71
2022/04/19 04:42:15;;;;;;;4.33;3.67;;;;;;;;;;6134408;28;20234;-70
2022/04/19 04:45:38;;;;;;;7.53;4.70;;;;;;;;;;6154128;28;20246;-71
2022/04/19 04:52:38;;;;;;;4.40;4.10;;;;;;;;;;6148191;28;20231;-70
2022/04/19 04:56:01;;;;;;;4.53;4.10;;;;;;;;;;6150887;28;20234;-70
2022/04/19 04:59:21;;;;;;;7.23;5.23;;;;;;;;;;6155021;28;20680;-70
2022/04/19 05:02:44;;;;;;;4.97;4.53;;;;;;;;;;6139591;28;20230;-70
2022/04/19 05:06:04;;;;;;;5.53;5.03;;;;;;;;;;6158541;28;21966;-70
2022/04/19 05:09:25;;;;;;;6.77;6.07;;;;;;;;;;6156829;28;20230;-71
2022/04/19 05:12:46;;;;;;;6.30;4.53;;;;;;;;;;6152715;28;20227;-70
2022/04/19 05:16:12;;;;;;;5.90;4.87;;;;;;;;;;6153844;28;20254;-70
2022/04/19 05:19:34;;;;;;;4.73;4.33;;;;;;;;;;6138661;28;20275;-70
2022/04/19 05:22:55;;;;;;;4.10;3.80;;;;;;;;;;6139978;28;20234;-69
2022/04/19 05:26:16;;;;;;;4.20;3.90;;;;;;;;;;6153386;28;20663;-70
2022/04/19 05:29:37;;;;;;;4.40;3.93;;;;;;;;;;6158306;28;20238;-70
2022/04/19 05:32:58;;;;;;;3.97;3.67;;;;;;;;;;6156587;28;20235;-71
2022/04/19 05:36:20;;;;;;;3.57;3.27;;;;;;;;;;6155490;28;20234;-70
2022/04/19 05:39:41;;;;;;;4.93;3.90;;;;;;;;;;6138584;28;20234;-71
2022/04/19 05:43:01;;;;;;;3.80;3.50;;;;;;;;;;6154272;28;20234;-72
2022/04/19 05:46:22;;;;;;;3.93;3.53;;;;;;;;;;6143832;28;20329;-71
2022/04/19 05:49:42;;;;;;;5.03;4.53;;;;;;;;;;6139324;28;20234;-73
2022/04/19 05:53:05;;;;;;;3.43;3.23;;;;;;;;;;6149621;28;20495;-72
2022/04/19 05:56:25;;;;;;;4.33;3.73;;;;;;;;;;6155067;28;20250;-74
2022/04/19 05:59:46;;;;;;;3.60;3.30;;;;;;;;;;6155800;28;20301;-72
2022/04/19 06:06:45;;;;;;;4.83;3.10;;;;;;;;;;6158295;28;20334;-72
2022/04/19 06:10:07;;;;;;;3.23;2.93;;;;;;;;;;6156040;28;20234;-72
2022/04/19 06:13:28;;;;;;;3.43;3.07;;;;;;;;;;6153798;28;20238;-71
2022/04/19 06:16:49;;;;;;;3.87;3.57;;;;;;;;;;6159629;28;20226;-72
2022/04/19 06:20:12;;;;;;;3.67;3.13;;;;;;;;;;6158314;28;21543;-74
2022/04/19 06:23:33;;;;;;;3.80;3.47;;;;;;;;;;6153647;28;20234;-73
2022/04/19 06:26:55;;;;;;;4.00;3.60;;;;;;;;;;6154563;28;20222;-72
2022/04/19 06:30:16;;;;;;;4.57;3.60;;;;;;;;;;6140557;28;20322;-71
2022/04/19 06:33:38;;;;;;;4.17;3.60;;;;;;;;;;6153040;28;20235;-72
2022/04/19 06:36:59;;;;;;;5.43;3.97;;;;;;;;;;6153278;28;20736;-72
2022/04/19 06:40:20;;;;;;;5.57;4.03;;;;;;;;;;6146492;28;20551;-73
2022/04/19 06:43:43;;;;;;;3.93;3.53;;;;;;;;;;6143844;28;20234;-72
2022/04/19 06:47:08;;;;;;;4.10;3.50;;;;;;;;;;6145817;28;20701;-73
2022/04/19 06:50:31;;;;;;;7.50;4.10;;;;;;;;;;6157936;28;21291;-70
2022/04/19 06:54:04;;;;;;;6.07;4.23;;;;;;;;;;6153388;28;20246;-69
2022/04/19 06:57:35;;;;;;;4.63;4.23;;;;;;;;;;6153342;28;20230;-69
2022/04/19 07:00:57;;;;;;;4.07;3.73;;;;;;;;;;6148242;28;20227;-69
2022/04/19 07:04:18;;;;;;;4.87;4.30;;;;;;;;;;6155353;28;20313;-70
2022/04/19 07:07:45;;;;;;;4.00;3.63;;;;;;;;;;6152732;28;20578;-68
2022/04/19 07:11:05;;;;;;;4.47;3.73;;;;;;;;;;6163685;28;20230;-69
2022/04/19 07:14:44;;;;;;;5.33;3.87;;;;;;;;;;6159442;28;20254;-68
2022/04/19 07:18:07;;;;;;;5.77;5.17;;;;;;;;;;6162156;28;20231;-68
2022/04/19 07:28:48;;;;;;;4.20;3.40;;;;;;;;;;6148642;28;20372;-71
2022/04/19 07:32:10;;;;;;;4.63;4.23;;;;;;;;;;6160220;28;20226;-74
2022/04/19 07:35:51;;;;;;;6.07;4.30;;;;;;;;;;6149459;28;20509;-71
2022/04/19 07:39:12;;;;;;;4.67;3.63;;;;;;;;;;6158445;28;20246;-73
2022/04/19 07:42:36;;;;;;;3.80;3.40;;;;;;;;;;6146142;28;20243;-70
2022/04/19 07:45:56;;;;;;;4.10;3.20;;;;;;;;;;6156617;28;20238;-71
2022/04/19 07:49:17;;;;;;;6.50;3.93;;;;;;;;;;6143768;28;20347;-71
2022/04/19 07:52:39;;;;;;;5.80;4.97;;;;;;;;;;6141148;28;20333;-70
2022/04/19 07:56:00;;;;;;;5.40;4.73;;;;;;;;;;6145147;28;20238;-70
2022/04/19 07:59:20;;;;;;;7.00;6.07;;;;;;;;;;6147582;28;20593;-70
2022/04/19 08:02:41;;;;;;;6.03;5.40;;;;;;;;;;6157730;28;20815;-70
2022/04/19 08:06:03;;;;;;;6.07;5.47;;;;;;;;;;6139926;28;20234;-72
2022/04/19 08:09:25;;;;;;;6.73;6.03;;;;;;;;;;6157526;28;20242;-71
2022/04/19 08:12:46;;;;;;;6.00;5.40;;;;;;;;;;6159723;28;20250;-71
2022/04/19 08:16:08;;;;;;;6.03;4.70;;;;;;;;;;6162708;28;20889;-71
2022/04/19 08:19:29;;;;;;;5.83;5.10;;;;;;;;;;6153006;28;20222;-71
2022/04/19 08:22:50;;;;;;;7.20;5.33;;;;;;;;;;6152989;28;20234;-71
2022/04/19 08:26:17;;;;;;;4.83;4.40;;;;;;;;;;6146240;28;20357;-72
2022/04/19 08:29:38;;;;;;;5.63;5.07;;;;;;;;;;6157111;28;20277;-69
2022/04/19 08:32:58;;;;;;;3.40;3.10;;;;;;;;;;6158719;28;20231;-71
2022/04/19 08:36:19;;;;;;;8.40;4.17;;;;;;;;;;6149376;28;20895;-72
2022/04/19 08:39:40;;;;;;;2.93;2.40;;;;;;;;;;6134539;28;20309;-71
2022/04/19 08:43:03;;;;;;;3.00;2.70;;;;;;;;;;6152181;28;20230;-70
2022/04/19 08:46:26;;;;;;;2.60;2.30;;;;;;;;;;6164540;28;20250;-71
2022/04/19 08:49:47;;;;;;;3.17;2.23;;;;;;;;;;6166348;28;20629;-70
2022/04/19 09:00:25;;;;;;;4.60;2.63;;;;;;;;;;6166130;28;20592;-70
2022/04/19 09:03:47;;;;;;;3.23;2.43;;;;;;;;;;6164414;28;20238;-72
2022/04/19 09:07:07;;;;;;;3.50;3.10;;;;;;;;;;6162847;28;20242;-72
2022/04/19 09:10:30;;;;;;;3.17;2.90;;;;;;;;;;6162280;28;20238;-70
2022/04/19 09:14:04;;;;;;;5.60;2.87;;;;;;;;;;6160614;28;20230;-72
2022/04/19 09:17:33;;;;;;;3.80;3.27;;;;;;;;;;6163136;28;21683;-72
2022/04/19 09:20:54;;;;;;;4.67;3.33;;;;;;;;;;6164760;28;20234;-71
2022/04/19 09:24:18;;;;;;;5.07;4.33;;;;;;;;;;6166025;28;20333;-71
2022/04/19 09:27:38;;;;;;;4.50;3.47;;;;;;;;;;6159917;28;20234;-71
2022/04/19 09:31:00;;;;;;;6.03;3.87;;;;;;;;;;6163151;28;20235;-73
2022/04/19 09:34:28;;;;;;;3.43;2.97;;;;;;;;;;6156146;28;20601;-71
2022/04/19 09:37:48;;;;;;;5.87;3.67;;;;;;;;;;6160688;28;20921;-71
2022/04/19 09:41:10;;;;;;;9.90;4.77;;;;;;;;;;6166515;28;20619;-70
2022/04/19 09:44:31;;;;;;;7.23;4.50;;;;;;;;;;6163512;28;20245;-73
2022/04/19 09:47:52;;;;;;;6.13;3.97;;;;;;;;;;6160243;28;20266;-71
2022/04/19 09:51:14;;;;;;;10.07;4.40;;;;;;;;;;6157979;28;20605;-71
2022/04/19 09:54:35;;;;;;;6.03;3.10;;;;;;;;;;6155506;28;20588;-71
2022/04/19 09:57:56;;;;;;;4.70;3.07;;;;;;;;;;6139310;28;20235;-70
2022/04/19 10:08:31;;;;;;;4.10;3.33;;;;;;;;;;6141725;28;20230;-72
2022/04/19 10:11:51;;;;;;;3.33;2.90;;;;;;;;;;6158435;28;20218;-72
2022/04/19 10:15:12;;;;;;;3.43;2.70;;;;;;;;;;6162414;28;20640;-73
2022/04/19 10:18:33;;;;;;;3.00;2.70;;;;;;;;;;6163367;28;20694;-71
2022/04/19 10:21:53;;;;;;;4.17;3.27;;;;;;;;;;6167305;28;20260;-72
2022/04/19 10:25:15;;;;;;;3.60;2.60;;;;;;;;;;6163080;28;20628;-71
2022/04/19 10:28:36;;;;;;;3.10;2.80;;;;;;;;;;6166092;28;20885;-70
2022/04/19 10:31:59;;;;;;;4.50;2.73;;;;;;;;;;6166055;28;20795;-73
2022/04/19 10:35:19;;;;;;;3.00;2.30;;;;;;;;;;6167115;28;20234;-71
2022/04/19 10:38:40;;;;;;;2.77;2.50;;;;;;;;;;6152523;28;20258;-71
2022/04/19 10:42:03;;;;;;;2.97;2.33;;;;;;;;;;6164639;28;20528;-73
2022/04/19 10:45:25;;;;;;;6.40;2.43;;;;;;;;;;6148110;28;20723;-71
2022/04/19 10:49:16;;;;;;;3.80;2.57;;;;;;;;;;6157077;28;20234;-70
2022/04/19 10:52:49;;;;;;;4.63;2.97;;;;;;;;;;6119478;28;20252;-70
2022/04/19 10:56:10;;;;;;;3.33;2.43;;;;;;;;;;6152765;28;20609;-70
2022/04/19 10:59:35;;;;;;;3.90;2.43;;;;;;;;;;6161277;28;20231;-71
2022/04/19 11:02:57;;;;;;;4.93;2.10;;;;;;;;;;6164279;28;20254;-72
2022/04/19 11:06:32;;;;;;;3.90;2.27;;;;;;;;;;6155168;28;20234;-71
2022/04/19 11:10:03;;;;;;;2.75;1.90;;;;;;;;;;6144063;28;20234;-69
2022/04/19 11:13:26;;;;;;;2.65;2.33;;;;;;;;;;6129398;28;20641;-70
2022/04/19 11:16:50;;;;;;;1.95;1.80;;;;;;;;;;6127573;28;20227;-74
2022/04/19 11:20:14;;;;;;;2.50;2.20;;;;;;;;;;6125408;28;20255;-69
2022/04/19 11:23:41;;;;;;;3.03;1.70;;;;;;;;;;6127314;28;20238;-71
2022/04/19 11:27:02;;;;;;;2.87;1.63;;;;;;;;;;6125675;28;20235;-69
2022/04/19 11:30:23;;;;;;;3.10;1.53;;;;;;;;;;6120220;28;20267;-70
2022/04/19 11:33:44;;;;;;;1.40;1.30;;;;;;;;;;6123900;28;20255;-70
2022/04/19 11:37:06;;;;;;;10.77;3.50;;;;;;;;;;6120899;28;20235;-71
2022/04/19 11:47:47;;;;;;;1.98;1.30;;;;;;;;;;6123917;28;20235;-70
2022/04/19 11:51:10;;;;;;;1.35;1.17;;;;;;;;;;6161614;28;20235;-70
2022/04/19 11:54:32;;;;;;;2.00;1.35;;;;;;;;;;6139271;28;20322;-69
2022/04/19 11:58:03;;;;;;;1.17;0.93;;;;;;;;;;6137632;28;20775;-70
2022/04/19 12:01:24;;;;;;;1.10;0.85;;;;;;;;;;6150990;28;20226;-71
2022/04/19 12:04:51;;;;;;;1.63;1.08;;;;;;;;;;6149487;28;20822;-69
2022/04/19 12:08:12;;;;;;;4.53;1.20;;;;;;;;;;6155042;28;20234;-70
2022/04/19 12:11:33;;;;;;;4.70;4.38;;;;;;;;;;6154199;28;20222;-70
2022/04/19 12:14:54;;;;;;;3.20;1.92;;;;;;;;;;6144144;28;20529;-70
2022/04/19 12:18:29;;;;;;;1.40;0.80;;;;;;;;;;6144537;28;20503;-71
2022/04/19 12:21:49;;;;;;;1.55;0.95;;;;;;;;;;6156049;28;20313;-70
2022/04/19 12:25:21;;;;;;;2.50;1.02;;;;;;;;;;6155703;28;20721;-71
2022/04/19 12:28:43;;;;;;;0.68;0.68;;;;;;;;;;6151975;28;20234;-70
2022/04/19 12:32:04;;;;;;;0.75;0.63;;;;;;;;;;6152695;28;20223;-70
2022/04/19 12:35:25;;;;;;;0.80;0.55;;;;;;;;;;6153381;28;20227;-71
2022/04/19 12:38:46;;;;;;;0.73;0.73;;;;;;;;;;6155178;28;20251;-69
2022/04/19 12:55:16;;;;;;;0.82;0.57;;;;;;;;;;6148580;28;20234;-70
2022/04/19 12:58:42;;;;;;;1.85;0.80;;;;;;;;;;6154394;28;20246;-70
2022/04/19 13:02:03;;;;;;;0.98;0.80;;;;;;;;;;6154455;28;20238;-70
2022/04/19 13:12:16;;;;;;;0.98;0.50;;;;;;;;;;6147451;28;20254;-70
2022/04/19 13:12:43;;;;;;;2.50;1.10;;;;;;;;;;6152993;28;20316;-67
2022/04/19 13:16:04;;;;;;;0.80;0.52;;;;;;;;;;6150284;28;20828;-72
2022/04/19 13:19:24;;;;;;;2.15;0.80;;;;;;;;;;6152285;28;20254;-70
2022/04/19 13:22:45;;;;;;;0.70;0.70;;;;;;;;;;6150947;28;20227;-70
2022/04/19 13:26:06;;;;;;;4.15;1.05;;;;;;;;;;6155565;28;20833;-71
2022/04/19 13:29:29;;;;;;;1.67;0.93;;;;;;;;;;6149433;28;20234;-70
2022/04/19 13:32:49;;;;;;;4.55;1.90;;;;;;;;;;6160400;28;20612;-69
2022/04/19 13:36:10;;;;;;;0.93;0.90;;;;;;;;;;6156404;28;20577;-69
2022/04/19 13:39:31;;;;;;;1.30;0.85;;;;;;;;;;6155061;28;20239;-72
2022/04/19 13:42:52;;;;;;;2.70;2.50;;;;;;;;;;6150236;28;20235;-70
2022/04/19 13:46:15;;;;;;;3.00;2.80;;;;;;;;;;6151853;28;20242;-70
2022/04/19 13:49:35;;;;;;;4.50;1.75;;;;;;;;;;6156724;28;20226;-70
2022/04/19 13:52:56;;;;;;;1.25;1.15;;;;;;;;;;6162338;28;20679;-70
2022/04/19 13:56:17;;;;;;;1.17;1.08;;;;;;;;;;6131084;28;20794;-70
2022/04/19 13:59:37;;;;;;;1.35;1.25;;;;;;;;;;6132689;28;20226;-69
2022/04/19 14:03:00;;;;;;;1.90;1.40;;;;;;;;;;6157566;28;20230;-69
2022/04/19 14:06:21;;;;;;;2.00;1.60;;;;;;;;;;6159558;28;20230;-71
2022/04/19 14:09:41;;;;;;;2.35;1.70;;;;;;;;;;6157243;28;20223;-70
2022/04/19 14:13:02;;;;;;;3.28;1.67;;;;;;;;;;6151492;28;20230;-70
2022/04/19 14:16:24;;;;;;;2.53;1.52;;;;;;;;;;6148733;28;20624;-69
2022/04/19 14:19:47;;;;;;;2.60;1.38;;;;;;;;;;6150076;28;20240;-69
2022/04/19 14:23:07;;;;;;;1.58;1.48;;;;;;;;;;6157145;28;20246;-70
2022/04/19 14:26:28;;;;;;;4.32;2.15;;;;;;;;;;6154196;28;20258;-69
2022/04/19 14:33:26;;;;;;;1.67;1.58;;;;;;;;;;6149093;28;20861;-68
2022/04/19 14:36:48;;;;;;;2.17;1.95;;;;;;;;;;6157370;28;20235;-71
2022/04/19 14:40:09;;;;;;;1.90;1.77;;;;;;;;;;6159221;28;20222;-70
2022/04/19 14:43:30;;;;;;;4.22;2.28;;;;;;;;;;6152112;28;20313;-69
2022/04/19 14:46:53;;;;;;;3.20;2.90;;;;;;;;;;6152644;28;20238;-70
2022/04/19 14:50:14;;;;;;;3.50;3.17;;;;;;;;;;6145407;28;20254;-69
2022/04/19 14:53:36;;;;;;;3.60;2.20;;;;;;;;;;6146441;28;20235;-69
2022/04/19 14:56:56;;;;;;;1.90;1.80;;;;;;;;;;6156203;28;20254;-69
2022/04/19 15:00:17;;;;;;;3.75;2.40;;;;;;;;;;6152889;28;20243;-68
2022/04/19 15:03:37;;;;;;;2.85;1.73;;;;;;;;;;6141970;28;20789;-70
2022/04/19 15:06:58;;;;;;;3.90;2.42;;;;;;;;;;6156180;28;20230;-70
2022/04/19 15:10:20;;;;;;;3.75;2.83;;;;;;;;;;6154872;28;20246;-69
2022/04/19 15:13:41;;;;;;;2.33;2.22;;;;;;;;;;6155723;28;20238;-68
2022/04/19 15:17:01;;;;;;;2.40;2.10;;;;;;;;;;6150126;28;20279;-69
2022/04/19 15:20:22;;;;;;;1.98;1.80;;;;;;;;;;6144958;28;20529;-68
2022/04/19 15:23:43;;;;;;;3.40;2.78;;;;;;;;;;6149746;28;20234;-69
2022/04/19 15:27:05;;;;;;;3.85;2.30;;;;;;;;;;6127801;28;20638;-69
2022/04/19 15:30:26;;;;;;;3.50;3.13;;;;;;;;;;6143129;28;20234;-68
2022/04/19 15:33:47;;;;;;;3.40;2.15;;;;;;;;;;6152721;28;20230;-69
2022/04/19 15:37:07;;;;;;;2.42;2.22;;;;;;;;;;6154910;28;20254;-69
2022/04/19 15:40:28;;;;;;;2.67;1.90;;;;;;;;;;6154957;28;20238;-69
2022/04/19 15:43:50;;;;;;;6.13;2.60;;;;;;;;;;6151716;28;20242;-69
2022/04/19 15:47:11;;;;;;;3.78;3.08;;;;;;;;;;6149540;28;20226;-69
2022/04/19 15:50:33;;;;;;;3.08;2.70;;;;;;;;;;6155282;28;20230;-69
2022/04/19 15:53:54;;;;;;;2.90;2.70;;;;;;;;;;6156198;28;20230;-70
2022/04/19 15:57:15;;;;;;;4.72;3.05;;;;;;;;;;6156570;28;20254;-69
2022/04/19 16:00:37;;;;;;;2.70;2.50;;;;;;;;;;6155080;28;20259;-69
2022/04/19 16:03:58;;;;;;;2.72;2.53;;;;;;;;;;6152687;28;20429;-69
2022/04/19 16:07:18;;;;;;;3.22;2.78;;;;;;;;;;6153167;28;20234;-69
2022/04/19 16:10:39;;;;;;;2.38;2.17;;;;;;;;;;6142557;28;20517;-70
2022/04/19 16:13:59;;;;;;;4.13;2.70;;;;;;;;;;6128137;28;20227;-70
2022/04/19 16:24:43;;;;;;;3.10;2.80;;;;;;;;;;6090950;28;20226;-68
2022/04/19 16:28:03;;;;;;;3.42;2.50;;;;;;;;;;6151019;28;20246;-68
2022/04/19 16:31:24;;;;;;;4.63;2.72;;;;;;;;;;6152199;28;20235;-70
2022/04/19 16:34:45;;;;;;;3.20;2.90;;;;;;;;;;6148180;28;20234;-70
2022/04/19 16:38:06;;;;;;;3.75;3.08;;;;;;;;;;6153802;28;20238;-70
2022/04/19 16:41:26;;;;;;;5.03;3.53;;;;;;;;;;6153652;28;20711;-68
2022/04/19 16:44:47;;;;;;;3.38;3.08;;;;;;;;;;6147680;28;20235;-69
2022/04/19 16:48:08;;;;;;;3.08;2.80;;;;;;;;;;6151833;28;20258;-68
2022/04/19 16:51:30;;;;;;;5.43;2.83;;;;;;;;;;6147031;28;20601;-69
2022/04/19 16:54:50;;;;;;;3.03;2.78;;;;;;;;;;6127337;28;20235;-70
2022/04/19 16:58:11;;;;;;;4.15;3.28;;;;;;;;;;6136676;28;20661;-69
2022/04/19 17:01:31;;;;;;;4.18;3.80;;;;;;;;;;6141923;28;20235;-68
2022/04/19 17:04:54;;;;;;;3.53;2.97;;;;;;;;;;6140965;28;20231;-69
2022/04/19 17:08:16;;;;;;;5.00;2.95;;;;;;;;;;6153377;28;20238;-69
2022/04/19 17:11:37;;;;;;;2.90;2.58;;;;;;;;;;6157041;28;20243;-71
2022/04/19 17:14:58;;;;;;;3.55;2.50;;;;;;;;;;6131369;28;20231;-69
2022/04/19 17:18:19;;;;;;;2.10;1.90;;;;;;;;;;6155684;28;20238;-71
2022/04/19 17:21:39;;;;;;;4.28;2.50;;;;;;;;;;6156468;28;20597;-73
2022/04/19 17:25:01;;;;;;;2.50;2.30;;;;;;;;;;6148102;28;20669;-72
2022/04/19 17:28:22;;;;;;;6.00;2.65;;;;;;;;;;6153070;28;20780;-71
2022/04/19 17:31:42;;;;;;;3.63;2.70;;;;;;;;;;6157517;28;20228;-72
2022/04/19 17:35:03;;;;;;;2.83;2.53;;;;;;;;;;6134490;28;20346;-72
2022/04/19 17:38:25;;;;;;;7.32;3.08;;;;;;;;;;6152849;28;20590;-71
2022/04/19 17:41:48;;;;;;;3.03;2.83;;;;;;;;;;6152167;28;20227;-74
2022/04/19 17:45:10;;;;;;;3.13;2.92;;;;;;;;;;6154049;28;20238;-74
2022/04/19 17:48:36;;;;;;;4.40;3.75;;;;;;;;;;6136331;28;20266;-72
2022/04/19 17:59:15;;;;;;;3.30;2.60;;;;;;;;;;6136704;28;20226;-74
2022/04/19 18:02:36;;;;;;;7.17;3.50;;;;;;;;;;6157992;28;20242;-74
2022/04/19 18:05:56;;;;;;;3.07;2.80;;;;;;;;;;6156686;28;20569;-74
2022/04/19 18:09:17;;;;;;;3.33;3.03;;;;;;;;;;6138591;28;20234;-72
2022/04/19 18:12:38;;;;;;;3.60;2.60;;;;;;;;;;6158745;28;20250;-75
2022/04/19 18:15:59;;;;;;;4.37;3.33;;;;;;;;;;6159187;28;20562;-69
2022/04/19 18:19:20;;;;;;;7.80;4.07;;;;;;;;;;6137169;28;20262;-69
2022/04/19 18:26:20;;;;;;;4.30;3.07;;;;;;;;;;6138029;28;20231;-71
2022/04/19 18:29:41;;;;;;;3.13;2.80;;;;;;;;;;6143106;28;20238;-71
2022/04/19 18:33:03;;;;;;;3.47;2.90;;;;;;;;;;6145747;28;20257;-69
2022/04/19 18:36:24;;;;;;;3.20;2.90;;;;;;;;;;6150901;28;20222;-71
2022/04/19 18:39:47;;;;;;;4.20;2.50;;;;;;;;;;6148617;28;20277;-71
2022/04/19 18:43:08;;;;;;;3.63;2.70;;;;;;;;;;6158998;28;20230;-72
2022/04/19 18:46:30;;;;;;;3.00;2.50;;;;;;;;;;6151773;28;20235;-72
2022/04/19 18:49:52;;;;;;;2.97;2.67;;;;;;;;;;6152721;28;20227;-72
2022/04/19 18:53:12;;;;;;;2.40;2.10;;;;;;;;;;6160475;28;20318;-71
2022/04/19 18:56:33;;;;;;;2.67;2.30;;;;;;;;;;6158531;28;20814;-72
2022/04/19 18:59:54;;;;;;;2.27;2.03;;;;;;;;;;6150072;28;20239;-70
2022/04/19 19:03:16;;;;;;;2.37;1.77;;;;;;;;;;6154470;28;20361;-70
2022/04/19 19:06:39;;;;;;;2.50;2.00;;;;;;;;;;6153290;28;20327;-71
2022/04/19 19:10:00;;;;;;;3.57;2.50;;;;;;;;;;6135920;28;20243;-73
2022/04/19 19:13:21;;;;;;;3.03;2.73;;;;;;;;;;6141996;28;20238;-71
2022/04/19 19:16:42;;;;;;;3.53;2.03;;;;;;;;;;6147618;28;20234;-69
2022/04/19 19:20:06;;;;;;;2.80;2.33;;;;;;;;;;6144062;28;20230;-72
2022/04/19 19:23:28;;;;;;;2.70;1.83;;;;;;;;;;6132966;28;20238;-71
2022/04/19 19:26:48;;;;;;;2.83;2.30;;;;;;;;;;6134395;28;20598;-73
2022/04/19 19:30:09;;;;;;;4.00;2.00;;;;;;;;;;6129912;28;20231;-74
2022/04/19 19:33:30;;;;;;;2.60;2.20;;;;;;;;;;6128522;28;20392;-71
2022/04/19 19:36:51;;;;;;;2.93;2.17;;;;;;;;;;6136606;28;20234;-69
2022/04/19 19:40:14;;;;;;;2.43;2.20;;;;;;;;;;6153378;28;20246;-70
2022/04/19 19:43:34;;;;;;;3.10;2.70;;;;;;;;;;6147511;28;21883;-70
2022/04/19 19:46:55;;;;;;;4.73;1.93;;;;;;;;;;6157974;28;20262;-71
2022/04/19 19:50:18;;;;;;;2.60;2.17;;;;;;;;;;6142981;28;20791;-72
2022/04/19 19:53:39;;;;;;;2.73;2.00;;;;;;;;;;6154898;28;20997;-72
2022/04/19 19:57:01;;;;;;;4.33;3.20;;;;;;;;;;6154585;28;20254;-74
2022/04/19 20:00:21;;;;;;;2.53;2.00;;;;;;;;;;6153136;28;20230;-75
2022/04/19 20:03:42;;;;;;;2.00;1.53;;;;;;;;;;6147601;28;20317;-71
2022/04/19 20:07:03;;;;;;;5.30;2.60;;;;;;;;;;6151688;28;20235;-73
2022/04/19 20:10:23;;;;;;;3.17;2.37;;;;;;;;;;6156423;28;20234;-71
2022/04/19 20:13:45;;;;;;;2.53;2.30;;;;;;;;;;6150838;28;20238;-73
2022/04/19 20:17:06;;;;;;;2.60;2.23;;;;;;;;;;6162220;28;20263;-73
2022/04/19 20:20:26;;;;;;;2.30;2.10;;;;;;;;;;6147578;28;20239;-76
2022/04/19 20:23:49;;;;;;;2.57;1.87;;;;;;;;;;6158671;28;20226;-72
2022/04/19 20:27:09;;;;;;;2.50;2.30;;;;;;;;;;6157682;28;20222;-72
2022/04/19 20:30:31;;;;;;;2.43;2.23;;;;;;;;;;6151792;28;20242;-72
2022/04/19 20:33:52;;;;;;;2.43;2.10;;;;;;;;;;6146147;28;20231;-71
2022/04/19 20:37:13;;;;;;;2.77;2.57;;;;;;;;;;6150584;28;20599;-72
2022/04/19 20:40:33;;;;;;;2.67;2.47;;;;;;;;;;6117470;28;20243;-72
2022/04/19 20:43:54;;;;;;;2.03;1.83;;;;;;;;;;6156410;28;20270;-71
2022/04/19 20:50:54;;;;;;;5.50;2.63;;;;;;;;;;6124980;28;20259;-74
2022/04/19 20:54:15;;;;;;;2.37;2.17;;;;;;;;;;6129791;28;20263;-72
2022/04/19 20:57:36;;;;;;;3.63;2.63;;;;;;;;;;6123033;28;21171;-76
2022/04/19 21:00:56;;;;;;;2.70;2.47;;;;;;;;;;6124598;28;20257;-72
2022/04/19 21:04:18;;;;;;;3.90;2.53;;;;;;;;;;6136029;28;20251;-73
2022/04/19 21:07:40;;;;;;;4.10;2.87;;;;;;;;;;6144378;28;20250;-71
2022/04/19 21:11:01;;;;;;;4.43;2.90;;;;;;;;;;6147180;28;20243;-72
2022/04/19 21:14:22;;;;;;;5.00;3.53;;;;;;;;;;6144888;28;20246;-72
2022/04/19 21:17:43;;;;;;;3.17;2.73;;;;;;;;;;6125419;28;20231;-72
2022/04/19 21:21:04;;;;;;;4.60;2.43;;;;;;;;;;6127461;28;20262;-72
2022/04/19 21:24:27;;;;;;;5.63;3.20;;;;;;;;;;6129736;28;20242;-72
2022/04/19 21:27:48;;;;;;;2.97;2.53;;;;;;;;;;6130695;28;20243;-72
2022/04/19 21:31:08;;;;;;;5.60;3.10;;;;;;;;;;6124689;28;20258;-74
2022/04/19 21:34:29;;;;;;;7.97;3.40;;;;;;;;;;6125119;28;20247;-75
2022/04/19 21:37:51;;;;;;;7.50;4.03;;;;;;;;;;6126085;28;20258;-74
2022/04/19 21:41:12;;;;;;;4.23;3.83;;;;;;;;;;6133187;28;20605;-73